sensor_id;sensor_type;location;lat;lon;timestamp;P1;durP1;ratioP1;P2;durP2;ratioP2
42754;SDS011;28407;51.830;5.684;2022-10-31T00:01:52;4.15;;;3.15;;
42754;SDS011;28407;51.830;5.684;2022-10-31T00:03:53;3.95;;;3.25;;
42754;SDS011;28407;51.830;5.684;2022-10-31T00:05:54;4.22;;;3.03;;
42754;SDS011;28407;51.830;5.684;2022-10-31T00:07:54;3.42;;;2.85;;
42754;SDS011;28407;51.830;5.684;2022-10-31T00:09:55;3.63;;;2.88;;
42754;SDS011;28407;51.830;5.684;2022-10-31T00:11:56;5.75;;;3.92;;
42754;SDS011;28407;51.830;5.684;2022-10-31T00:13:57;6.57;;;3.67;;
42754;SDS011;28407;51.830;5.684;2022-10-31T00:17:59;5.30;;;3.63;;
42754;SDS011;28407;51.830;5.684;2022-10-31T00:20:00;3.80;;;2.92;;
42754;SDS011;28407;51.830;5.684;2022-10-31T00:22:00;4.60;;;3.63;;
42754;SDS011;28407;51.830;5.684;2022-10-31T00:24:01;6.95;;;3.97;;
42754;SDS011;28407;51.830;5.684;2022-10-31T00:26:03;5.78;;;3.80;;
42754;SDS011;28407;51.830;5.684;2022-10-31T00:28:05;5.63;;;3.92;;
42754;SDS011;28407;51.830;5.684;2022-10-31T00:30:06;5.90;;;4.32;;
42754;SDS011;28407;51.830;5.684;2022-10-31T00:32:07;5.22;;;3.17;;
42754;SDS011;28407;51.830;5.684;2022-10-31T00:34:08;3.70;;;3.28;;
42754;SDS011;28407;51.830;5.684;2022-10-31T00:36:16;4.32;;;3.45;;
42754;SDS011;28407;51.830;5.684;2022-10-31T00:38:18;3.65;;;3.28;;
42754;SDS011;28407;51.830;5.684;2022-10-31T00:40:18;3.92;;;3.30;;
42754;SDS011;28407;51.830;5.684;2022-10-31T00:42:19;5.10;;;3.65;;
42754;SDS011;28407;51.830;5.684;2022-10-31T00:44:19;6.32;;;3.85;;
42754;SDS011;28407;51.830;5.684;2022-10-31T00:46:20;6.22;;;4.03;;
42754;SDS011;28407;51.830;5.684;2022-10-31T00:48:22;6.25;;;4.25;;
42754;SDS011;28407;51.830;5.684;2022-10-31T00:50:23;5.43;;;4.00;;
42754;SDS011;28407;51.830;5.684;2022-10-31T00:52:23;9.02;;;4.03;;
42754;SDS011;28407;51.830;5.684;2022-10-31T00:54:24;6.47;;;4.35;;
42754;SDS011;28407;51.830;5.684;2022-10-31T00:56:25;6.25;;;4.00;;
42754;SDS011;28407;51.830;5.684;2022-10-31T00:58:25;6.78;;;3.80;;
42754;SDS011;28407;51.830;5.684;2022-10-31T01:00:26;5.03;;;3.92;;
42754;SDS011;28407;51.830;5.684;2022-10-31T01:02:27;7.45;;;3.45;;
42754;SDS011;28407;51.830;5.684;2022-10-31T01:04:28;5.28;;;4.03;;
42754;SDS011;28407;51.830;5.684;2022-10-31T01:06:30;4.95;;;4.07;;
42754;SDS011;28407;51.830;5.684;2022-10-31T01:08:31;6.70;;;5.28;;
42754;SDS011;28407;51.830;5.684;2022-10-31T01:10:32;4.38;;;3.65;;
42754;SDS011;28407;51.830;5.684;2022-10-31T01:12:39;5.22;;;3.38;;
42754;SDS011;28407;51.830;5.684;2022-10-31T01:14:44;4.97;;;3.42;;
42754;SDS011;28407;51.830;5.684;2022-10-31T01:16:45;6.07;;;3.70;;
42754;SDS011;28407;51.830;5.684;2022-10-31T01:18:48;6.78;;;3.80;;
42754;SDS011;28407;51.830;5.684;2022-10-31T01:23:23;5.53;;;4.07;;
42754;SDS011;28407;51.830;5.684;2022-10-31T01:25:23;7.00;;;4.72;;
42754;SDS011;28407;51.830;5.684;2022-10-31T01:27:24;5.25;;;4.15;;
42754;SDS011;28407;51.830;5.684;2022-10-31T01:29:25;5.32;;;4.20;;
42754;SDS011;28407;51.830;5.684;2022-10-31T01:31:27;4.53;;;4.10;;
42754;SDS011;28407;51.830;5.684;2022-10-31T01:33:30;4.88;;;3.65;;
42754;SDS011;28407;51.830;5.684;2022-10-31T01:35:30;5.22;;;3.72;;
42754;SDS011;28407;51.830;5.684;2022-10-31T01:37:31;5.15;;;4.15;;
42754;SDS011;28407;51.830;5.684;2022-10-31T01:39:32;4.93;;;3.83;;
42754;SDS011;28407;51.830;5.684;2022-10-31T01:41:34;5.60;;;4.10;;
42754;SDS011;28407;51.830;5.684;2022-10-31T01:43:57;5.95;;;5.00;;
42754;SDS011;28407;51.830;5.684;2022-10-31T01:45:59;6.72;;;3.95;;
42754;SDS011;28407;51.830;5.684;2022-10-31T01:48:00;5.50;;;3.88;;
42754;SDS011;28407;51.830;5.684;2022-10-31T01:50:02;3.83;;;3.40;;
42754;SDS011;28407;51.830;5.684;2022-10-31T01:52:07;3.55;;;3.05;;
42754;SDS011;28407;51.830;5.684;2022-10-31T01:54:14;4.82;;;3.38;;
42754;SDS011;28407;51.830;5.684;2022-10-31T01:56:18;3.92;;;3.17;;
42754;SDS011;28407;51.830;5.684;2022-10-31T01:58:20;5.38;;;3.17;;
42754;SDS011;28407;51.830;5.684;2022-10-31T02:00:24;5.30;;;3.13;;
42754;SDS011;28407;51.830;5.684;2022-10-31T02:02:25;3.92;;;3.00;;
42754;SDS011;28407;51.830;5.684;2022-10-31T02:04:28;4.03;;;3.10;;
42754;SDS011;28407;51.830;5.684;2022-10-31T02:06:33;4.97;;;3.87;;
42754;SDS011;28407;51.830;5.684;2022-10-31T02:08:46;4.22;;;3.47;;
42754;SDS011;28407;51.830;5.684;2022-10-31T02:10:47;7.20;;;3.75;;
42754;SDS011;28407;51.830;5.684;2022-10-31T02:12:48;4.30;;;3.60;;
42754;SDS011;28407;51.830;5.684;2022-10-31T02:14:52;6.15;;;4.05;;
42754;SDS011;28407;51.830;5.684;2022-10-31T02:16:53;4.53;;;3.38;;
42754;SDS011;28407;51.830;5.684;2022-10-31T02:18:54;5.18;;;3.38;;
42754;SDS011;28407;51.830;5.684;2022-10-31T02:21:07;3.33;;;2.88;;
42754;SDS011;28407;51.830;5.684;2022-10-31T02:27:52;6.18;;;3.20;;
42754;SDS011;28407;51.830;5.684;2022-10-31T02:32:13;3.22;;;2.75;;
42754;SDS011;28407;51.830;5.684;2022-10-31T02:34:35;3.95;;;3.03;;
42754;SDS011;28407;51.830;5.684;2022-10-31T02:41:28;4.43;;;3.17;;
42754;SDS011;28407;51.830;5.684;2022-10-31T02:48:19;3.67;;;2.83;;
42754;SDS011;28407;51.830;5.684;2022-10-31T02:50:31;4.47;;;2.80;;
42754;SDS011;28407;51.830;5.684;2022-10-31T02:52:36;4.10;;;2.40;;
42754;SDS011;28407;51.830;5.684;2022-10-31T02:54:38;4.68;;;3.42;;
42754;SDS011;28407;51.830;5.684;2022-10-31T02:56:38;5.30;;;3.47;;
42754;SDS011;28407;51.830;5.684;2022-10-31T02:58:50;4.63;;;3.22;;
42754;SDS011;28407;51.830;5.684;2022-10-31T03:01:14;5.43;;;3.92;;
42754;SDS011;28407;51.830;5.684;2022-10-31T03:03:43;6.45;;;2.80;;
42754;SDS011;28407;51.830;5.684;2022-10-31T03:12:40;5.18;;;3.83;;
42754;SDS011;28407;51.830;5.684;2022-10-31T03:15:36;4.53;;;3.58;;
42754;SDS011;28407;51.830;5.684;2022-10-31T03:17:33;5.22;;;3.35;;
42754;SDS011;28407;51.830;5.684;2022-10-31T03:19:39;5.70;;;3.35;;
42754;SDS011;28407;51.830;5.684;2022-10-31T03:21:43;5.28;;;3.50;;
42754;SDS011;28407;51.830;5.684;2022-10-31T03:23:47;4.00;;;3.55;;
42754;SDS011;28407;51.830;5.684;2022-10-31T03:25:53;5.10;;;4.00;;
42754;SDS011;28407;51.830;5.684;2022-10-31T03:27:59;4.93;;;4.03;;
42754;SDS011;28407;51.830;5.684;2022-10-31T03:30:04;5.43;;;4.07;;
42754;SDS011;28407;51.830;5.684;2022-10-31T03:32:16;5.15;;;3.45;;
42754;SDS011;28407;51.830;5.684;2022-10-31T03:34:21;4.38;;;3.85;;
42754;SDS011;28407;51.830;5.684;2022-10-31T03:36:22;4.35;;;3.63;;
42754;SDS011;28407;51.830;5.684;2022-10-31T03:38:23;6.45;;;4.82;;
42754;SDS011;28407;51.830;5.684;2022-10-31T03:40:27;5.43;;;4.32;;
42754;SDS011;28407;51.830;5.684;2022-10-31T03:42:30;5.32;;;4.35;;
42754;SDS011;28407;51.830;5.684;2022-10-31T03:44:33;6.53;;;4.70;;
42754;SDS011;28407;51.830;5.684;2022-10-31T03:46:36;7.80;;;5.70;;
42754;SDS011;28407;51.830;5.684;2022-10-31T03:48:36;8.43;;;5.30;;
42754;SDS011;28407;51.830;5.684;2022-10-31T03:50:40;7.45;;;5.68;;
42754;SDS011;28407;51.830;5.684;2022-10-31T03:52:58;6.43;;;5.15;;
42754;SDS011;28407;51.830;5.684;2022-10-31T03:55:19;6.40;;;4.65;;
42754;SDS011;28407;51.830;5.684;2022-10-31T03:57:33;13.43;;;5.28;;
42754;SDS011;28407;51.830;5.684;2022-10-31T03:59:58;5.45;;;4.57;;
42754;SDS011;28407;51.830;5.684;2022-10-31T04:02:06;5.85;;;5.20;;
42754;SDS011;28407;51.830;5.684;2022-10-31T04:04:11;6.72;;;5.53;;
42754;SDS011;28407;51.830;5.684;2022-10-31T04:06:12;7.20;;;5.20;;
42754;SDS011;28407;51.830;5.684;2022-10-31T04:08:17;7.03;;;5.68;;
42754;SDS011;28407;51.830;5.684;2022-10-31T04:10:22;6.03;;;4.63;;
42754;SDS011;28407;51.830;5.684;2022-10-31T04:12:24;5.28;;;4.20;;
42754;SDS011;28407;51.830;5.684;2022-10-31T04:14:44;6.53;;;4.68;;
42754;SDS011;28407;51.830;5.684;2022-10-31T04:16:47;5.97;;;4.65;;
42754;SDS011;28407;51.830;5.684;2022-10-31T04:18:48;6.47;;;4.82;;
42754;SDS011;28407;51.830;5.684;2022-10-31T04:20:58;5.30;;;4.18;;
42754;SDS011;28407;51.830;5.684;2022-10-31T04:23:04;5.38;;;4.30;;
42754;SDS011;28407;51.830;5.684;2022-10-31T04:25:13;6.88;;;4.68;;
42754;SDS011;28407;51.830;5.684;2022-10-31T04:27:14;5.95;;;4.63;;
42754;SDS011;28407;51.830;5.684;2022-10-31T04:29:15;7.43;;;4.28;;
42754;SDS011;28407;51.830;5.684;2022-10-31T04:31:15;6.50;;;5.38;;
42754;SDS011;28407;51.830;5.684;2022-10-31T04:33:18;8.10;;;4.63;;
42754;SDS011;28407;51.830;5.684;2022-10-31T04:35:20;5.93;;;5.07;;
42754;SDS011;28407;51.830;5.684;2022-10-31T04:37:21;7.03;;;4.85;;
42754;SDS011;28407;51.830;5.684;2022-10-31T04:39:22;5.38;;;4.68;;
42754;SDS011;28407;51.830;5.684;2022-10-31T04:41:38;6.00;;;5.07;;
42754;SDS011;28407;51.830;5.684;2022-10-31T04:43:47;9.60;;;5.88;;
42754;SDS011;28407;51.830;5.684;2022-10-31T04:45:47;6.38;;;5.38;;
42754;SDS011;28407;51.830;5.684;2022-10-31T04:47:48;6.82;;;5.60;;
42754;SDS011;28407;51.830;5.684;2022-10-31T04:49:49;9.23;;;7.28;;
42754;SDS011;28407;51.830;5.684;2022-10-31T04:51:50;7.80;;;5.40;;
42754;SDS011;28407;51.830;5.684;2022-10-31T04:53:52;9.07;;;5.88;;
42754;SDS011;28407;51.830;5.684;2022-10-31T04:56:19;6.90;;;5.43;;
42754;SDS011;28407;51.830;5.684;2022-10-31T04:58:21;6.43;;;5.55;;
42754;SDS011;28407;51.830;5.684;2022-10-31T05:00:23;6.47;;;5.80;;
42754;SDS011;28407;51.830;5.684;2022-10-31T05:02:24;7.23;;;5.57;;
42754;SDS011;28407;51.830;5.684;2022-10-31T05:04:30;9.32;;;6.70;;
42754;SDS011;28407;51.830;5.684;2022-10-31T05:06:31;7.90;;;5.57;;
42754;SDS011;28407;51.830;5.684;2022-10-31T05:08:31;8.18;;;6.38;;
42754;SDS011;28407;51.830;5.684;2022-10-31T05:10:35;6.85;;;6.03;;
42754;SDS011;28407;51.830;5.684;2022-10-31T05:12:37;6.70;;;5.57;;
42754;SDS011;28407;51.830;5.684;2022-10-31T05:15:04;7.07;;;5.55;;
42754;SDS011;28407;51.830;5.684;2022-10-31T05:17:24;7.60;;;5.90;;
42754;SDS011;28407;51.830;5.684;2022-10-31T05:19:43;6.20;;;4.97;;
42754;SDS011;28407;51.830;5.684;2022-10-31T05:22:19;8.05;;;5.03;;
42754;SDS011;28407;51.830;5.684;2022-10-31T05:24:19;7.72;;;4.88;;
42754;SDS011;28407;51.830;5.684;2022-10-31T05:28:22;4.90;;;4.20;;
42754;SDS011;28407;51.830;5.684;2022-10-31T05:30:24;5.63;;;4.38;;
42754;SDS011;28407;51.830;5.684;2022-10-31T05:32:27;6.70;;;3.97;;
42754;SDS011;28407;51.830;5.684;2022-10-31T05:34:52;4.80;;;4.18;;
42754;SDS011;28407;51.830;5.684;2022-10-31T05:37:10;5.47;;;4.05;;
42754;SDS011;28407;51.830;5.684;2022-10-31T05:39:11;5.57;;;4.07;;
42754;SDS011;28407;51.830;5.684;2022-10-31T05:41:17;6.88;;;3.67;;
42754;SDS011;28407;51.830;5.684;2022-10-31T05:43:20;8.52;;;5.38;;
42754;SDS011;28407;51.830;5.684;2022-10-31T05:45:21;6.88;;;5.35;;
42754;SDS011;28407;51.830;5.684;2022-10-31T05:47:34;5.22;;;4.07;;
42754;SDS011;28407;51.830;5.684;2022-10-31T05:50:13;5.22;;;4.03;;
42754;SDS011;28407;51.830;5.684;2022-10-31T05:52:21;4.38;;;3.97;;
42754;SDS011;28407;51.830;5.684;2022-10-31T05:54:29;3.70;;;3.25;;
42754;SDS011;28407;51.830;5.684;2022-10-31T05:56:30;4.53;;;3.53;;
42754;SDS011;28407;51.830;5.684;2022-10-31T05:58:30;4.65;;;3.90;;
42754;SDS011;28407;51.830;5.684;2022-10-31T06:00:38;6.32;;;4.85;;
42754;SDS011;28407;51.830;5.684;2022-10-31T06:02:42;7.72;;;4.80;;
42754;SDS011;28407;51.830;5.684;2022-10-31T06:05:13;5.38;;;4.10;;
42754;SDS011;28407;51.830;5.684;2022-10-31T06:07:15;6.10;;;4.88;;
42754;SDS011;28407;51.830;5.684;2022-10-31T06:09:16;5.85;;;4.63;;
42754;SDS011;28407;51.830;5.684;2022-10-31T06:11:17;6.50;;;5.30;;
42754;SDS011;28407;51.830;5.684;2022-10-31T06:13:38;6.15;;;5.18;;
42754;SDS011;28407;51.830;5.684;2022-10-31T06:15:48;6.70;;;5.50;;
42754;SDS011;28407;51.830;5.684;2022-10-31T06:17:57;6.72;;;5.10;;
42754;SDS011;28407;51.830;5.684;2022-10-31T06:20:00;5.78;;;4.78;;
42754;SDS011;28407;51.830;5.684;2022-10-31T06:22:03;5.90;;;4.82;;
42754;SDS011;28407;51.830;5.684;2022-10-31T06:24:06;5.95;;;5.15;;
42754;SDS011;28407;51.830;5.684;2022-10-31T06:26:25;5.82;;;4.65;;
42754;SDS011;28407;51.830;5.684;2022-10-31T06:28:26;7.00;;;5.27;;
42754;SDS011;28407;51.830;5.684;2022-10-31T06:30:32;5.80;;;5.20;;
42754;SDS011;28407;51.830;5.684;2022-10-31T06:32:33;5.75;;;4.28;;
42754;SDS011;28407;51.830;5.684;2022-10-31T06:34:34;5.57;;;4.20;;
42754;SDS011;28407;51.830;5.684;2022-10-31T06:36:34;5.80;;;4.50;;
42754;SDS011;28407;51.830;5.684;2022-10-31T06:40:40;6.93;;;3.85;;
42754;SDS011;28407;51.830;5.684;2022-10-31T06:42:57;4.70;;;3.80;;
42754;SDS011;28407;51.830;5.684;2022-10-31T06:44:59;6.15;;;4.10;;
42754;SDS011;28407;51.830;5.684;2022-10-31T06:47:18;4.82;;;4.13;;
42754;SDS011;28407;51.830;5.684;2022-10-31T06:49:32;4.57;;;3.88;;
42754;SDS011;28407;51.830;5.684;2022-10-31T06:51:38;5.65;;;4.03;;
42754;SDS011;28407;51.830;5.684;2022-10-31T06:53:39;6.50;;;4.88;;
42754;SDS011;28407;51.830;5.684;2022-10-31T06:55:41;5.20;;;4.30;;
42754;SDS011;28407;51.830;5.684;2022-10-31T06:57:42;5.38;;;4.22;;
42754;SDS011;28407;51.830;5.684;2022-10-31T06:59:49;6.32;;;4.35;;
42754;SDS011;28407;51.830;5.684;2022-10-31T07:01:54;4.95;;;3.95;;
42754;SDS011;28407;51.830;5.684;2022-10-31T07:03:54;5.43;;;4.65;;
42754;SDS011;28407;51.830;5.684;2022-10-31T07:05:55;4.88;;;3.58;;
42754;SDS011;28407;51.830;5.684;2022-10-31T07:07:59;5.82;;;3.92;;
42754;SDS011;28407;51.830;5.684;2022-10-31T07:10:03;5.22;;;4.28;;
42754;SDS011;28407;51.830;5.684;2022-10-31T07:12:30;5.25;;;4.30;;
42754;SDS011;28407;51.830;5.684;2022-10-31T07:16:33;4.68;;;3.92;;
42754;SDS011;28407;51.830;5.684;2022-10-31T07:18:33;5.25;;;3.90;;
42754;SDS011;28407;51.830;5.684;2022-10-31T07:20:35;4.93;;;4.03;;
42754;SDS011;28407;51.830;5.684;2022-10-31T07:22:37;5.35;;;3.90;;
42754;SDS011;28407;51.830;5.684;2022-10-31T07:24:40;5.35;;;4.50;;
42754;SDS011;28407;51.830;5.684;2022-10-31T07:26:59;7.07;;;5.10;;
42754;SDS011;28407;51.830;5.684;2022-10-31T07:29:00;6.13;;;4.55;;
42754;SDS011;28407;51.830;5.684;2022-10-31T07:31:01;5.18;;;4.43;;
42754;SDS011;28407;51.830;5.684;2022-10-31T07:33:02;5.93;;;4.60;;
42754;SDS011;28407;51.830;5.684;2022-10-31T07:35:25;6.10;;;5.00;;
42754;SDS011;28407;51.830;5.684;2022-10-31T07:37:31;6.38;;;5.15;;
42754;SDS011;28407;51.830;5.684;2022-10-31T07:39:33;6.28;;;5.05;;
42754;SDS011;28407;51.830;5.684;2022-10-31T07:41:34;6.28;;;4.70;;
42754;SDS011;28407;51.830;5.684;2022-10-31T07:43:34;7.05;;;4.80;;
42754;SDS011;28407;51.830;5.684;2022-10-31T07:45:53;5.70;;;4.80;;
42754;SDS011;28407;51.830;5.684;2022-10-31T07:48:23;7.30;;;5.63;;
42754;SDS011;28407;51.830;5.684;2022-10-31T07:50:42;7.55;;;6.07;;
42754;SDS011;28407;51.830;5.684;2022-10-31T07:53:02;7.53;;;6.03;;
42754;SDS011;28407;51.830;5.684;2022-10-31T07:55:25;7.63;;;5.90;;
42754;SDS011;28407;51.830;5.684;2022-10-31T07:57:30;8.05;;;6.05;;
42754;SDS011;28407;51.830;5.684;2022-10-31T07:59:31;11.65;;;6.57;;
42754;SDS011;28407;51.830;5.684;2022-10-31T08:01:32;9.52;;;6.95;;
42754;SDS011;28407;51.830;5.684;2022-10-31T08:03:53;9.20;;;6.80;;
42754;SDS011;28407;51.830;5.684;2022-10-31T08:06:22;7.60;;;6.55;;
42754;SDS011;28407;51.830;5.684;2022-10-31T08:08:49;9.68;;;6.72;;
42754;SDS011;28407;51.830;5.684;2022-10-31T08:10:51;8.07;;;6.32;;
42754;SDS011;28407;51.830;5.684;2022-10-31T08:12:58;11.48;;;6.45;;
42754;SDS011;28407;51.830;5.684;2022-10-31T08:15:03;8.13;;;6.60;;
42754;SDS011;28407;51.830;5.684;2022-10-31T08:17:04;10.70;;;7.43;;
42754;SDS011;28407;51.830;5.684;2022-10-31T08:19:14;8.27;;;7.13;;
42754;SDS011;28407;51.830;5.684;2022-10-31T08:21:15;11.15;;;6.65;;
42754;SDS011;28407;51.830;5.684;2022-10-31T08:23:17;8.13;;;6.72;;
42754;SDS011;28407;51.830;5.684;2022-10-31T08:25:18;9.93;;;7.70;;
42754;SDS011;28407;51.830;5.684;2022-10-31T08:27:19;9.18;;;7.40;;
42754;SDS011;28407;51.830;5.684;2022-10-31T08:29:20;9.40;;;7.72;;
42754;SDS011;28407;51.830;5.684;2022-10-31T08:31:21;10.32;;;8.43;;
42754;SDS011;28407;51.830;5.684;2022-10-31T08:33:22;11.02;;;8.63;;
42754;SDS011;28407;51.830;5.684;2022-10-31T08:35:57;9.10;;;7.35;;
42754;SDS011;28407;51.830;5.684;2022-10-31T08:38:22;8.70;;;6.85;;
42754;SDS011;28407;51.830;5.684;2022-10-31T08:40:24;9.05;;;7.43;;
42754;SDS011;28407;51.830;5.684;2022-10-31T08:42:25;9.20;;;7.95;;
42754;SDS011;28407;51.830;5.684;2022-10-31T08:44:26;9.00;;;8.00;;
42754;SDS011;28407;51.830;5.684;2022-10-31T08:46:27;12.30;;;7.93;;
42754;SDS011;28407;51.830;5.684;2022-10-31T08:48:27;9.13;;;7.13;;
42754;SDS011;28407;51.830;5.684;2022-10-31T08:50:31;12.13;;;7.50;;
42754;SDS011;28407;51.830;5.684;2022-10-31T08:52:32;8.98;;;7.60;;
42754;SDS011;28407;51.830;5.684;2022-10-31T08:54:36;9.77;;;8.00;;
42754;SDS011;28407;51.830;5.684;2022-10-31T08:56:56;11.45;;;8.13;;
42754;SDS011;28407;51.830;5.684;2022-10-31T08:59:15;11.85;;;7.18;;
42754;SDS011;28407;51.830;5.684;2022-10-31T09:01:30;12.32;;;7.65;;
42754;SDS011;28407;51.830;5.684;2022-10-31T09:03:31;11.48;;;7.38;;
42754;SDS011;28407;51.830;5.684;2022-10-31T09:07:34;8.55;;;6.85;;
42754;SDS011;28407;51.830;5.684;2022-10-31T09:09:35;10.07;;;7.20;;
42754;SDS011;28407;51.830;5.684;2022-10-31T09:11:36;9.18;;;6.47;;
42754;SDS011;28407;51.830;5.684;2022-10-31T09:13:55;8.52;;;7.00;;
42754;SDS011;28407;51.830;5.684;2022-10-31T09:16:14;9.07;;;6.50;;
42754;SDS011;28407;51.830;5.684;2022-10-31T09:18:16;8.80;;;6.40;;
42754;SDS011;28407;51.830;5.684;2022-10-31T09:20:24;10.73;;;6.70;;
42754;SDS011;28407;51.830;5.684;2022-10-31T09:22:26;9.32;;;6.47;;
42754;SDS011;28407;51.830;5.684;2022-10-31T09:24:26;12.55;;;6.38;;
42754;SDS011;28407;51.830;5.684;2022-10-31T09:26:27;7.57;;;6.30;;
42754;SDS011;28407;51.830;5.684;2022-10-31T09:28:30;8.18;;;6.47;;
42754;SDS011;28407;51.830;5.684;2022-10-31T09:30:37;6.97;;;5.30;;
42754;SDS011;28407;51.830;5.684;2022-10-31T09:32:38;7.95;;;6.00;;
42754;SDS011;28407;51.830;5.684;2022-10-31T09:34:39;10.63;;;6.38;;
42754;SDS011;28407;51.830;5.684;2022-10-31T09:36:44;8.32;;;6.38;;
42754;SDS011;28407;51.830;5.684;2022-10-31T09:38:53;8.95;;;6.82;;
42754;SDS011;28407;51.830;5.684;2022-10-31T09:45:31;9.55;;;6.70;;
42754;SDS011;28407;51.830;5.684;2022-10-31T09:48:06;8.27;;;5.65;;
42754;SDS011;28407;51.830;5.684;2022-10-31T09:50:46;8.18;;;6.00;;
42754;SDS011;28407;51.830;5.684;2022-10-31T09:53:23;9.30;;;6.30;;
42754;SDS011;28407;51.830;5.684;2022-10-31T09:55:31;9.73;;;7.15;;
42754;SDS011;28407;51.830;5.684;2022-10-31T09:57:39;9.87;;;6.83;;
42754;SDS011;28407;51.830;5.684;2022-10-31T09:59:41;12.32;;;7.47;;
42754;SDS011;28407;51.830;5.684;2022-10-31T10:01:46;13.30;;;8.63;;
42754;SDS011;28407;51.830;5.684;2022-10-31T10:03:52;11.23;;;8.15;;
42754;SDS011;28407;51.830;5.684;2022-10-31T10:06:32;14.52;;;9.30;;
42754;SDS011;28407;51.830;5.684;2022-10-31T10:08:54;11.93;;;9.10;;
42754;SDS011;28407;51.830;5.684;2022-10-31T10:18:32;13.45;;;8.52;;
42754;SDS011;28407;51.830;5.684;2022-10-31T10:29:34;14.15;;;8.23;;
42754;SDS011;28407;51.830;5.684;2022-10-31T10:31:42;12.38;;;7.82;;
42754;SDS011;28407;51.830;5.684;2022-10-31T10:33:53;11.88;;;9.10;;
42754;SDS011;28407;51.830;5.684;2022-10-31T10:36:17;13.75;;;8.55;;
42754;SDS011;28407;51.830;5.684;2022-10-31T10:40:57;14.27;;;9.02;;
42754;SDS011;28407;51.830;5.684;2022-10-31T10:43:12;11.65;;;7.82;;
42754;SDS011;28407;51.830;5.684;2022-10-31T10:45:31;15.13;;;9.80;;
42754;SDS011;28407;51.830;5.684;2022-10-31T10:47:56;13.73;;;10.13;;
42754;SDS011;28407;51.830;5.684;2022-10-31T10:50:19;12.77;;;7.88;;
42754;SDS011;28407;51.830;5.684;2022-10-31T10:52:27;18.52;;;9.65;;
42754;SDS011;28407;51.830;5.684;2022-10-31T10:59:09;12.88;;;9.07;;
42754;SDS011;28407;51.830;5.684;2022-10-31T11:01:14;17.63;;;9.60;;
42754;SDS011;28407;51.830;5.684;2022-10-31T11:03:16;17.05;;;11.32;;
42754;SDS011;28407;51.830;5.684;2022-10-31T11:05:21;17.40;;;12.32;;
42754;SDS011;28407;51.830;5.684;2022-10-31T11:07:39;19.38;;;12.57;;
42754;SDS011;28407;51.830;5.684;2022-10-31T11:09:40;16.35;;;11.55;;
42754;SDS011;28407;51.830;5.684;2022-10-31T11:11:40;14.15;;;10.95;;
42754;SDS011;28407;51.830;5.684;2022-10-31T11:13:41;17.88;;;10.68;;
42754;SDS011;28407;51.830;5.684;2022-10-31T11:15:53;14.15;;;9.85;;
42754;SDS011;28407;51.830;5.684;2022-10-31T11:18:01;14.90;;;9.90;;
42754;SDS011;28407;51.830;5.684;2022-10-31T11:20:04;16.25;;;11.15;;
42754;SDS011;28407;51.830;5.684;2022-10-31T11:22:05;16.58;;;10.70;;
42754;SDS011;28407;51.830;5.684;2022-10-31T11:26:16;17.83;;;10.57;;
42754;SDS011;28407;51.830;5.684;2022-10-31T11:28:20;14.95;;;9.40;;
42754;SDS011;28407;51.830;5.684;2022-10-31T11:30:21;16.37;;;10.97;;
42754;SDS011;28407;51.830;5.684;2022-10-31T11:32:23;13.65;;;10.20;;
42754;SDS011;28407;51.830;5.684;2022-10-31T11:34:28;16.80;;;11.02;;
42754;SDS011;28407;51.830;5.684;2022-10-31T11:36:33;16.27;;;11.35;;
42754;SDS011;28407;51.830;5.684;2022-10-31T11:38:40;20.48;;;11.43;;
42754;SDS011;28407;51.830;5.684;2022-10-31T11:40:50;16.30;;;11.38;;
42754;SDS011;28407;51.830;5.684;2022-10-31T11:42:57;14.55;;;9.88;;
42754;SDS011;28407;51.830;5.684;2022-10-31T11:44:59;18.10;;;12.10;;
42754;SDS011;28407;51.830;5.684;2022-10-31T11:47:02;19.15;;;11.82;;
42754;SDS011;28407;51.830;5.684;2022-10-31T11:49:10;13.93;;;9.93;;
42754;SDS011;28407;51.830;5.684;2022-10-31T11:51:23;16.77;;;10.27;;
42754;SDS011;28407;51.830;5.684;2022-10-31T11:53:28;16.27;;;10.65;;
42754;SDS011;28407;51.830;5.684;2022-10-31T11:55:33;16.38;;;10.60;;
42754;SDS011;28407;51.830;5.684;2022-10-31T12:00:02;15.52;;;10.43;;
42754;SDS011;28407;51.830;5.684;2022-10-31T12:02:17;16.50;;;11.20;;
42754;SDS011;28407;51.830;5.684;2022-10-31T12:04:19;14.98;;;10.40;;
42754;SDS011;28407;51.830;5.684;2022-10-31T12:06:32;14.90;;;10.10;;
42754;SDS011;28407;51.830;5.684;2022-10-31T12:08:35;14.55;;;9.82;;
42754;SDS011;28407;51.830;5.684;2022-10-31T12:13:07;12.85;;;9.00;;
42754;SDS011;28407;51.830;5.684;2022-10-31T12:15:31;14.48;;;9.43;;
42754;SDS011;28407;51.830;5.684;2022-10-31T12:17:41;14.65;;;10.25;;
42754;SDS011;28407;51.830;5.684;2022-10-31T12:19:55;18.52;;;9.63;;
42754;SDS011;28407;51.830;5.684;2022-10-31T12:22:13;14.38;;;9.57;;
42754;SDS011;28407;51.830;5.684;2022-10-31T12:28:56;13.70;;;8.60;;
42754;SDS011;28407;51.830;5.684;2022-10-31T12:31:12;14.07;;;8.80;;
42754;SDS011;28407;51.830;5.684;2022-10-31T12:38:33;12.95;;;8.63;;
42754;SDS011;28407;51.830;5.684;2022-10-31T12:55:08;12.25;;;8.95;;
42754;SDS011;28407;51.830;5.684;2022-10-31T12:59:36;12.48;;;8.25;;
42754;SDS011;28407;51.830;5.684;2022-10-31T13:04:19;13.10;;;8.52;;
42754;SDS011;28407;51.830;5.684;2022-10-31T13:06:36;14.23;;;7.95;;
42754;SDS011;28407;51.830;5.684;2022-10-31T13:08:45;12.07;;;7.32;;
42754;SDS011;28407;51.830;5.684;2022-10-31T13:11:10;12.38;;;7.13;;
42754;SDS011;28407;51.830;5.684;2022-10-31T13:16:11;9.27;;;5.82;;
42754;SDS011;28407;51.830;5.684;2022-10-31T13:18:24;9.32;;;6.60;;
42754;SDS011;28407;51.830;5.684;2022-10-31T13:20:32;12.75;;;8.35;;
42754;SDS011;28407;51.830;5.684;2022-10-31T13:22:37;14.38;;;6.07;;
42754;SDS011;28407;51.830;5.684;2022-10-31T13:24:50;8.85;;;6.35;;
42754;SDS011;28407;51.830;5.684;2022-10-31T13:26:56;11.25;;;5.95;;
42754;SDS011;28407;51.830;5.684;2022-10-31T13:29:03;13.45;;;6.88;;
42754;SDS011;28407;51.830;5.684;2022-10-31T13:31:19;11.43;;;7.20;;
42754;SDS011;28407;51.830;5.684;2022-10-31T13:33:22;7.90;;;5.68;;
42754;SDS011;28407;51.830;5.684;2022-10-31T13:35:31;10.25;;;6.70;;
42754;SDS011;28407;51.830;5.684;2022-10-31T13:37:56;9.48;;;5.47;;
42754;SDS011;28407;51.830;5.684;2022-10-31T13:40:18;11.32;;;6.85;;
42754;SDS011;28407;51.830;5.684;2022-10-31T13:44:45;13.52;;;6.40;;
42754;SDS011;28407;51.830;5.684;2022-10-31T13:46:46;10.15;;;5.93;;
42754;SDS011;28407;51.830;5.684;2022-10-31T13:48:46;7.72;;;5.63;;
42754;SDS011;28407;51.830;5.684;2022-10-31T13:51:04;14.48;;;6.18;;
42754;SDS011;28407;51.830;5.684;2022-10-31T13:57:43;10.85;;;6.97;;
42754;SDS011;28407;51.830;5.684;2022-10-31T13:59:48;10.98;;;6.30;;
42754;SDS011;28407;51.830;5.684;2022-10-31T14:01:58;12.93;;;7.68;;
42754;SDS011;28407;51.830;5.684;2022-10-31T14:04:02;11.45;;;6.80;;
42754;SDS011;28407;51.830;5.684;2022-10-31T14:06:20;10.90;;;6.47;;
42754;SDS011;28407;51.830;5.684;2022-10-31T14:12:40;8.85;;;5.43;;
42754;SDS011;28407;51.830;5.684;2022-10-31T14:14:45;9.20;;;6.05;;
42754;SDS011;28407;51.830;5.684;2022-10-31T14:16:53;7.65;;;5.00;;
42754;SDS011;28407;51.830;5.684;2022-10-31T14:18:57;10.65;;;5.88;;
42754;SDS011;28407;51.830;5.684;2022-10-31T14:21:12;8.20;;;5.65;;
42754;SDS011;28407;51.830;5.684;2022-10-31T14:25:31;9.68;;;5.13;;
42754;SDS011;28407;51.830;5.684;2022-10-31T14:27:42;9.52;;;5.55;;
42754;SDS011;28407;51.830;5.684;2022-10-31T14:29:45;11.43;;;5.90;;
42754;SDS011;28407;51.830;5.684;2022-10-31T14:31:53;11.88;;;5.90;;
42754;SDS011;28407;51.830;5.684;2022-10-31T14:33:58;8.88;;;5.97;;
42754;SDS011;28407;51.830;5.684;2022-10-31T14:36:01;9.32;;;5.43;;
42754;SDS011;28407;51.830;5.684;2022-10-31T14:38:13;10.65;;;6.22;;
42754;SDS011;28407;51.830;5.684;2022-10-31T14:42:35;9.75;;;6.55;;